Anning, China

7:15 PM CST on November 22, 2017 (GMT +0800)
Wujiaba | | Change Station

Elev 6207 ft 25.02 °N, 102.68 °E | Updated 15 minutes ago

Fog
Fog
41 °F
Feels Like 33 °F
N
16
Wind Variable Wind from NNE

Today
High -- | Low -- °F
--% Chance of Precip.
Yesterday
High -- | Low -- °F
Precip. -- in
Pressure 30.18 in
Visibility 1.2 miles
Clouds Scattered Clouds 200 ft
Scattered Clouds 400 ft
Overcast 3000 ft
Windchill 33 °F
Dew Point 41 °F
Humidity 100%
Rainfall 0.00 in
Snow Depth Not available.
7:31 AM 6:20 PM
Waxing Crescent, 14% visible
METAR ZPPP 221100Z 02007MPS 2000 BR SCT002 SCT004 OVC030 05/05 Q1022 NOSIG
Pressure 30.18 in
Visibility 1.2 miles
Clouds Scattered Clouds 200 ft
Scattered Clouds 400 ft
Overcast 3000 ft
Windchill 33 °F
Dew Point 41 °F
Humidity 100%
Rainfall 0.00 in
Snow Depth Not available.
7:31 AM 6:20 PM
Waxing Crescent, 14% visible
METAR ZPPP 221100Z 02007MPS 2000 BR SCT002 SCT004 OVC030 05/05 Q1022 NOSIG

Get Severe Weather Alerts

Thanks for signing up!

Be on the lookout for a verification email in your inbox.

You'll start receiving the daily forecast at 6 AM.

×

10-Day Weather Forecast

No radar image for this location.
×

Almanac

Astronomy

Nov. 22, 2017 Rise Set
Actual Time
Civil Twilight
Nautical Twilight
Astronomical Twilight
Moon
Length of Visible Light
Length of Day
Tomorrow will be .
, % of the Moon is Illuminated

Today's Extremes

Country Highs Country Lows

Community

WunderPhotos

Category 6

Welcome to Category 6. This is the collective home for Weather Underground's featured writeups by Dr. Jeff Masters (right), Bob Henson (left), Chris Burt, and other regular contributors.

Nearby

Air Quality

  Air Quality AQ Index Pollutant
Not available.

Snow Depth

Station Depth Elevation

Earthquake Activity

City Distance Mag. Time & Date
Minimum magnitude displayed is 2.5.

Coastal Water Temperatures

Place Temperature

Stations

Nearby Weather Stations

Station Location Temp. Windchill Dew Point Humidity Wind Precip. Elev Updated Type